Time;durP1;ratioP1;P1;durP2;ratioP2;P2;SDS_P1;SDS_P2;PMS_P1;PMS_P2;Temp;Humidity;BMP_temperature;BMP_pressure;BME280_temperature;BME280_humidity;BME280_pressure;Samples;Min_cycle;Max_cycle;Signal;HPM_P1;HPM_P2
2023/06/04 00:01:52;;;;;;;;;;;;;;;27.47;36.20;100891.38;5079203;28;1022;-21
2023/06/04 00:04:18;;;;;;;;;;;;;;;27.45;36.35;100884.47;5096866;28;1148;-21
2023/06/04 00:06:43;;;;;;;;;;;;;;;27.47;36.06;100888.69;5097336;28;1106;-21
2023/06/04 00:09:09;;;;;;;;;;;;;;;27.35;36.61;100887.41;5096899;28;1918;-22
2023/06/04 00:11:35;;;;;;;;;;;;;;;27.38;36.48;100889.75;5097199;28;1054;-21
2023/06/04 00:14:00;;;;;;;;;;;;;;;27.41;36.33;100892.09;5096954;28;1101;-21
2023/06/04 00:16:26;;;;;;;;;;;;;;;27.41;36.63;100888.56;5096569;28;1004;-21
2023/06/04 00:18:51;;;;;;;;;;;;;;;27.54;36.38;100894.19;5097145;28;1142;-21
2023/06/04 00:21:17;;;;;;;;;;;;;;;27.47;36.50;100890.53;5097204;28;1133;-20
2023/06/04 00:23:42;;;;;;;;;;;;;;;27.43;36.19;100895.44;5096604;28;1143;-21
2023/06/04 00:26:08;;;;;;;;;;;;;;;27.44;36.26;100899.84;5083489;28;1026;-21
2023/06/04 00:28:33;;;;;;;;;;;;;;;27.60;36.02;100898.00;5096150;28;1971;-21
2023/06/04 00:30:59;;;;;;;;;;;;;;;27.47;36.23;100896.78;5096850;28;1221;-23
2023/06/04 00:33:24;;;;;;;;;;;;;;;27.37;36.35;100896.19;5096617;28;1041;-21
2023/06/04 00:35:50;;;;;;;;;;;;;;;27.39;36.68;100899.56;5077910;28;1070;-21
2023/06/04 00:38:16;;;;;;;;;;;;;;;27.46;36.14;100897.78;5078346;28;1423;-22
2023/06/04 00:40:41;;;;;;;;;;;;;;;27.45;36.26;100897.97;5078231;28;1107;-22
2023/06/04 00:43:07;;;;;;;;;;;;;;;27.36;36.75;100879.13;5096766;28;1057;-21
2023/06/04 00:45:32;;;;;;;;;;;;;;;27.28;36.69;100895.41;5096445;28;1137;-21
2023/06/04 00:47:58;;;;;;;;;;;;;;;27.37;36.68;100891.63;5078139;28;1156;-21
2023/06/04 00:50:24;;;;;;;;;;;;;;;27.40;36.76;100890.41;5096232;28;1967;-21
2023/06/04 00:52:49;;;;;;;;;;;;;;;27.29;37.19;100885.44;5078055;28;1095;-21
2023/06/04 00:55:17;;;;;;;;;;;;;;;27.36;37.17;100892.63;5078198;28;1262;-22
2023/06/04 00:57:43;;;;;;;;;;;;;;;27.32;37.36;100888.63;5078479;28;1146;-21
2023/06/04 01:00:09;;;;;;;;;;;;;;;27.30;37.46;100896.06;5096149;28;1037;-21
2023/06/04 01:02:35;;;;;;;;;;;;;;;27.17;37.91;100893.13;5078188;28;1174;-21
2023/06/04 01:05:16;;;;;;;;;;;;;;;27.33;37.19;100901.09;5077713;28;1086;-21
2023/06/04 01:07:45;;;;;;;;;;;;;;;27.28;37.93;100910.78;5077836;28;1281;-22
2023/06/04 01:10:11;;;;;;;;;;;;;;;27.22;37.79;100907.78;5078123;28;1997;-22
2023/06/04 01:12:39;;;;;;;;;;;;;;;27.44;37.59;100907.94;5096121;28;1296;-21
2023/06/04 01:15:05;;;;;;;;;;;;;;;27.37;37.50;100920.50;5096423;28;1086;-21
2023/06/04 01:17:36;;;;;;;;;;;;;;;27.39;37.55;100915.75;5096153;28;1154;-21
2023/06/04 01:20:21;;;;;;;;;;;;;;;27.30;37.76;100912.28;5077865;28;1122;-21
2023/06/04 01:22:59;;;;;;;;;;;;;;;27.27;37.61;100912.63;5095960;28;1071;-21
2023/06/04 01:25:26;;;;;;;;;;;;;;;27.21;37.84;100919.59;5077856;28;1313;-21
2023/06/04 01:27:55;;;;;;;;;;;;;;;27.26;37.83;100917.19;5077794;28;1417;-21
2023/06/04 01:30:25;;;;;;;;;;;;;;;27.28;37.71;100919.72;5078145;28;1906;-21
2023/06/04 01:32:50;;;;;;;;;;;;;;;27.28;37.95;100918.88;5096299;28;1170;-21
2023/06/04 01:35:16;;;;;;;;;;;;;;;27.25;37.64;100914.66;5078184;28;1253;-21
2023/06/04 01:37:41;;;;;;;;;;;;;;;27.22;37.59;100918.59;5096320;28;1041;-20
2023/06/04 01:40:08;;;;;;;;;;;;;;;27.25;37.70;100918.22;5095709;28;1034;-22
2023/06/04 01:42:34;;;;;;;;;;;;;;;27.25;37.77;100922.78;5077205;28;927;-22
2023/06/04 01:44:59;;;;;;;;;;;;;;;27.19;38.03;100918.94;5077475;28;1138;-21
2023/06/04 01:47:25;;;;;;;;;;;;;;;27.14;38.01;100919.47;5096153;28;1205;-21
2023/06/04 01:49:50;;;;;;;;;;;;;;;27.17;38.41;100920.97;5095654;28;1910;-20
2023/06/04 01:52:16;;;;;;;;;;;;;;;27.17;38.17;100926.38;5099016;28;1105;-21
2023/06/04 01:54:42;;;;;;;;;;;;;;;27.30;38.14;100922.22;5080783;28;934;-21
2023/06/04 01:57:09;;;;;;;;;;;;;;;27.08;38.60;100928.28;5081417;28;1164;-22
2023/06/04 01:59:36;;;;;;;;;;;;;;;27.12;38.41;100929.63;5081536;28;1198;-21
2023/06/04 02:02:02;;;;;;;;;;;;;;;27.06;38.57;100935.72;5099958;28;1030;-21
2023/06/04 02:04:27;;;;;;;;;;;;;;;27.19;38.55;100948.66;5099206;28;1062;-21
2023/06/04 02:06:53;;;;;;;;;;;;;;;27.14;38.53;100946.47;5081664;28;1107;-21
2023/06/04 02:09:18;;;;;;;;;;;;;;;27.07;38.45;100950.06;5081280;28;1981;-21
2023/06/04 02:11:44;;;;;;;;;;;;;;;27.02;38.62;100943.34;5099138;28;1209;-23
2023/06/04 02:14:10;;;;;;;;;;;;;;;27.21;38.40;100953.88;5098953;28;1197;-22
2023/06/04 02:16:35;;;;;;;;;;;;;;;27.14;38.41;100962.66;5099266;28;1117;-21
2023/06/04 02:19:01;;;;;;;;;;;;;;;27.22;38.04;100960.94;5098996;28;1118;-22
2023/06/04 02:21:26;;;;;;;;;;;;;;;27.28;38.21;100964.81;5099161;28;1049;-22
2023/06/04 02:23:52;;;;;;;;;;;;;;;27.04;38.65;100958.53;5098931;28;1102;-22
2023/06/04 02:26:17;;;;;;;;;;;;;;;27.08;38.66;100965.22;5080832;28;1102;-21
2023/06/04 02:28:43;;;;;;;;;;;;;;;27.18;38.49;100973.94;5080292;28;1967;-22
2023/06/04 02:31:08;;;;;;;;;;;;;;;27.14;38.69;100973.47;5080738;28;1082;-22
2023/06/04 02:33:34;;;;;;;;;;;;;;;27.10;38.60;100960.50;5098705;28;1178;-23
2023/06/04 02:36:00;;;;;;;;;;;;;;;27.12;38.48;100970.13;5099179;28;1057;-21
2023/06/04 02:38:26;;;;;;;;;;;;;;;27.18;38.27;100976.66;5080931;28;1236;-22
2023/06/04 02:40:51;;;;;;;;;;;;;;;27.14;38.49;100981.56;5098405;28;1150;-21
2023/06/04 02:43:17;;;;;;;;;;;;;;;27.08;38.71;100967.94;5080243;28;1153;-23
2023/06/04 02:45:42;;;;;;;;;;;;;;;27.16;38.72;100972.47;5098572;28;1049;-21
2023/06/04 02:48:08;;;;;;;;;;;;;;;27.06;38.74;100972.69;5080509;28;1897;-21
2023/06/04 02:50:33;;;;;;;;;;;;;;;27.03;38.79;100971.16;5080786;28;1122;-22
2023/06/04 02:52:59;;;;;;;;;;;;;;;27.01;38.98;100976.75;5098226;28;1201;-23
2023/06/04 02:55:25;;;;;;;;;;;;;;;27.05;39.03;100979.09;5099172;28;1154;-21
2023/06/04 02:57:51;;;;;;;;;;;;;;;27.15;38.71;100987.81;5098385;28;1110;-21
2023/06/04 03:00:17;;;;;;;;;;;;;;;27.07;38.88;100985.16;5098489;28;1070;-23
2023/06/04 03:02:43;;;;;;;;;;;;;;;27.07;38.68;100988.72;5079951;28;1158;-20
2023/06/04 03:05:10;;;;;;;;;;;;;;;27.07;38.76;100991.41;5098195;28;1206;-22
2023/06/04 03:07:36;;;;;;;;;;;;;;;26.99;38.81;100994.94;5097981;28;1110;-22
2023/06/04 03:10:02;;;;;;;;;;;;;;;27.04;38.81;100993.63;5098425;28;1977;-24
2023/06/04 03:12:30;;;;;;;;;;;;;;;27.10;38.79;100993.75;5079873;28;1178;-21
2023/06/04 03:14:56;;;;;;;;;;;;;;;27.15;38.65;100998.63;5063436;28;1258;-22
2023/06/04 03:17:21;;;;;;;;;;;;;;;27.33;38.38;101002.91;5097526;28;1153;-21
2023/06/04 03:19:48;;;;;;;;;;;;;;;27.67;37.60;100998.13;5098159;28;1085;-22
2023/06/04 03:22:13;;;;;;;;;;;;;;;27.52;37.92;100990.78;5080032;28;1127;-21
2023/06/04 03:24:39;;;;;;;;;;;;;;;27.16;38.50;101003.00;5097550;28;1050;-22
2023/06/04 03:27:05;;;;;;;;;;;;;;;27.05;38.51;101006.94;5098153;28;1039;-22
2023/06/04 03:29:32;;;;;;;;;;;;;;;27.42;37.74;101009.09;5079672;28;1914;-21
2023/06/04 03:31:59;;;;;;;;;;;;;;;27.09;38.47;101013.66;5079570;28;1058;-21
2023/06/04 03:34:25;;;;;;;;;;;;;;;27.46;37.95;101018.53;5080030;28;1240;-21
2023/06/04 03:36:51;;;;;;;;;;;;;;;26.86;37.80;101019.81;5079419;28;1185;-19
2023/06/04 03:39:17;;;;;;;;;;;;;;;26.65;38.02;101017.69;5098044;28;1006;-20
2023/06/04 03:41:44;;;;;;;;;;;;;;;26.44;37.61;101023.66;5079258;28;1146;-20
2023/06/04 03:44:10;;;;;;;;;;;;;;;26.48;37.42;101030.38;5071482;28;1220;-20
2023/06/04 03:46:35;;;;;;;;;;;;;;;26.39;37.71;101030.38;5056536;28;1519;-21
2023/06/04 03:49:02;;;;;;;;;;;;;;;26.31;37.70;101032.25;5078940;28;1910;-20
2023/06/04 03:51:28;;;;;;;;;;;;;;;26.43;37.80;101046.22;5079424;28;1290;-20
2023/06/04 03:53:55;;;;;;;;;;;;;;;26.34;37.85;101045.41;5075867;28;1226;-20
2023/06/04 03:56:21;;;;;;;;;;;;;;;26.09;39.53;101045.41;5079148;28;1150;-19
2023/06/04 03:58:47;;;;;;;;;;;;;;;26.92;38.01;101055.22;5075452;28;1132;-18
2023/06/04 04:01:13;;;;;;;;;;;;;;;26.92;38.07;101060.63;5078513;28;1089;-20
2023/06/04 04:03:39;;;;;;;;;;;;;;;26.84;37.59;101062.31;5078450;28;1373;-22
2023/06/04 04:06:05;;;;;;;;;;;;;;;27.22;37.77;101060.88;5077890;28;1211;-20
2023/06/04 04:08:31;;;;;;;;;;;;;;;26.74;37.27;101057.13;5096097;28;1909;-21
2023/06/04 04:10:58;;;;;;;;;;;;;;;25.84;38.71;101057.00;5078025;28;2071;-20
2023/06/04 04:13:24;;;;;;;;;;;;;;;25.99;38.01;101059.88;5077633;28;1206;-20
2023/06/04 04:15:53;;;;;;;;;;;;;;;26.10;38.09;101057.88;5078806;28;1221;-19
2023/06/04 04:18:22;;;;;;;;;;;;;;;26.14;38.10;101067.31;5077614;28;1082;-20
2023/06/04 04:20:47;;;;;;;;;;;;;;;26.28;37.93;101063.06;5078682;28;1087;-20
2023/06/04 04:23:13;;;;;;;;;;;;;;;26.19;38.38;101058.72;5078963;28;1218;-20
2023/06/04 04:25:43;;;;;;;;;;;;;;;26.25;38.17;101066.13;5078511;28;1407;-19
2023/06/04 04:28:09;;;;;;;;;;;;;;;26.33;37.95;101073.38;5078374;28;1910;-20
2023/06/04 04:30:37;;;;;;;;;;;;;;;26.29;37.81;101073.69;5078514;28;1323;-21
2023/06/04 04:33:06;;;;;;;;;;;;;;;26.19;38.02;101069.50;5078732;28;1374;-20
2023/06/04 04:35:39;;;;;;;;;;;;;;;26.37;37.79;101070.19;5078379;28;1401;-20
2023/06/04 04:38:05;;;;;;;;;;;;;;;26.28;38.06;101072.03;5078366;28;1150;-20
2023/06/04 04:40:36;;;;;;;;;;;;;;;26.33;37.93;101071.53;5078677;28;1316;-20
2023/06/04 04:43:04;;;;;;;;;;;;;;;26.32;38.10;101075.22;5078087;28;1235;-19
2023/06/04 04:45:30;;;;;;;;;;;;;;;26.46;37.31;101079.09;5078507;28;1208;-21
2023/06/04 04:47:58;;;;;;;;;;;;;;;26.43;37.01;101078.59;5078586;28;1333;-20
2023/06/04 04:50:24;;;;;;;;;;;;;;;25.97;38.99;101082.63;5078248;28;1902;-19
2023/06/04 04:52:50;;;;;;;;;;;;;;;25.86;38.77;101081.13;5078404;28;1437;-20
2023/06/04 04:55:15;;;;;;;;;;;;;;;25.74;38.93;101088.66;5095864;28;1030;-20
2023/06/04 04:57:44;;;;;;;;;;;;;;;25.14;40.07;101083.22;5078539;28;1218;-20
2023/06/04 05:00:10;;;;;;;;;;;;;;;25.28;39.66;101071.84;5096847;28;932;-20
2023/06/04 05:02:37;;;;;;;;;;;;;;;25.90;38.42;101090.53;5078020;28;1946;-20
2023/06/04 05:05:04;;;;;;;;;;;;;;;26.02;37.69;101083.81;5077936;28;1059;-20
2023/06/04 05:07:30;;;;;;;;;;;;;;;26.43;37.08;101087.53;5077829;28;1290;-19
2023/06/04 05:09:55;;;;;;;;;;;;;;;26.33;37.53;101078.78;5078388;28;1905;-22
2023/06/04 05:12:21;;;;;;;;;;;;;;;25.94;38.02;101073.03;5077473;28;1405;-21
2023/06/04 05:14:47;;;;;;;;;;;;;;;26.11;37.51;101081.94;5065656;28;1135;-21
2023/06/04 05:17:16;;;;;;;;;;;;;;;25.98;37.52;101079.75;5078157;28;1202;-22
2023/06/04 05:19:42;;;;;;;;;;;;;;;25.89;37.83;101092.38;5077501;28;1252;-21
2023/06/04 05:22:10;;;;;;;;;;;;;;;26.21;36.99;101094.44;5077982;28;1156;-22
2023/06/04 05:24:36;;;;;;;;;;;;;;;26.08;37.30;101101.16;5078460;28;1238;-21
2023/06/04 05:27:04;;;;;;;;;;;;;;;26.04;37.14;101100.66;5081768;28;1623;-22
2023/06/04 05:29:30;;;;;;;;;;;;;;;26.07;37.48;101090.56;5082000;28;2220;-21
2023/06/04 05:31:56;;;;;;;;;;;;;;;26.10;37.38;101104.53;5081824;28;1079;-23
2023/06/04 05:34:22;;;;;;;;;;;;;;;26.24;36.98;101107.59;5081873;28;1372;-21
2023/06/04 05:36:48;;;;;;;;;;;;;;;26.02;37.42;101102.69;5081669;28;1494;-21
2023/06/04 05:39:14;;;;;;;;;;;;;;;26.03;36.88;101111.59;5082018;28;1201;-21
2023/06/04 05:41:49;;;;;;;;;;;;;;;26.27;36.46;101110.78;5081934;28;1240;-21
2023/06/04 05:44:15;;;;;;;;;;;;;;;26.14;37.05;101115.84;5081740;28;1290;-20
2023/06/04 05:46:41;;;;;;;;;;;;;;;26.27;36.63;101113.50;5081470;28;1407;-21
2023/06/04 05:49:08;;;;;;;;;;;;;;;26.29;36.44;101107.94;5081520;28;1902;-21
2023/06/04 05:51:33;;;;;;;;;;;;;;;26.17;36.25;101107.41;5081869;28;1118;-21
2023/06/04 05:53:59;;;;;;;;;;;;;;;26.31;36.34;101113.97;5081517;28;1345;-23
2023/06/04 05:56:26;;;;;;;;;;;;;;;26.34;36.66;101115.53;5099233;28;917;-21
2023/06/04 05:58:53;;;;;;;;;;;;;;;26.41;36.30;101114.69;5081790;28;1030;-21
2023/06/04 06:01:19;;;;;;;;;;;;;;;26.23;36.88;101124.75;5081400;28;1154;-21
2023/06/04 06:03:46;;;;;;;;;;;;;;;26.76;36.09;101119.88;5081384;28;1900;-21
2023/06/04 06:06:11;;;;;;;;;;;;;;;27.25;36.25;101136.13;5081416;28;1210;-20
2023/06/04 06:08:37;;;;;;;;;;;;;;;27.36;35.43;101129.53;5080563;28;1914;-20
2023/06/04 06:11:04;;;;;;;;;;;;;;;26.97;36.30;101129.28;5081265;28;1394;-20
2023/06/04 06:13:30;;;;;;;;;;;;;;;26.99;36.43;101126.41;5081622;28;1142;-20
2023/06/04 06:15:57;;;;;;;;;;;;;;;27.46;35.33;101130.13;5080781;28;1110;-21
2023/06/04 06:18:23;;;;;;;;;;;;;;;27.40;35.19;101138.94;5081109;28;1449;-21
2023/06/04 06:20:48;;;;;;;;;;;;;;;27.53;34.37;101129.44;5081008;28;1537;-20
2023/06/04 06:23:15;;;;;;;;;;;;;;;27.63;34.10;101135.44;5080793;28;1138;-21
2023/06/04 06:25:45;;;;;;;;;;;;;;;27.62;33.75;101133.78;5080704;28;1281;-20
2023/06/04 06:28:15;;;;;;;;;;;;;;;27.55;33.65;101132.78;5081125;28;1910;-20
2023/06/04 06:30:42;;;;;;;;;;;;;;;27.47;33.65;101136.38;5080645;28;1283;-20
2023/06/04 06:33:08;;;;;;;;;;;;;;;27.78;32.97;101121.22;5099127;28;1126;-21
2023/06/04 06:35:33;;;;;;;;;;;;;;;27.49;33.48;101128.94;5099350;28;1088;-20
2023/06/04 06:37:59;;;;;;;;;;;;;;;27.63;33.28;101128.19;5098167;28;1212;-21
2023/06/04 06:40:24;;;;;;;;;;;;;;;27.67;32.89;101138.66;5098717;28;1177;-21
2023/06/04 06:42:53;;;;;;;;;;;;;;;27.69;32.49;101133.94;5098447;28;1165;-21
2023/06/04 06:45:18;;;;;;;;;;;;;;;27.47;33.22;101137.25;5098486;28;1038;-20
2023/06/04 06:47:44;;;;;;;;;;;;;;;27.47;33.03;101133.69;5098532;28;1038;-21
2023/06/04 06:50:10;;;;;;;;;;;;;;;27.48;32.61;101138.06;5081008;28;1914;-21
2023/06/04 06:52:36;;;;;;;;;;;;;;;27.48;32.48;101138.91;5098882;28;1038;-21
2023/06/04 06:55:02;;;;;;;;;;;;;;;27.43;32.75;101135.88;5098355;28;1066;-20
2023/06/04 06:57:28;;;;;;;;;;;;;;;27.38;32.81;101139.13;5098451;28;1121;-20
2023/06/04 06:59:54;;;;;;;;;;;;;;;27.34;32.93;101145.06;5098503;28;1158;-21
2023/06/04 07:02:20;;;;;;;;;;;;;;;27.37;32.74;101142.00;5098604;28;1023;-22
2023/06/04 07:04:45;;;;;;;;;;;;;;;27.24;33.06;101146.09;5098367;28;1229;-20
2023/06/04 07:07:11;;;;;;;;;;;;;;;27.23;32.95;101151.66;5098386;28;1231;-20
2023/06/04 07:09:36;;;;;;;;;;;;;;;27.40;32.47;101144.34;5097915;28;1990;-21
2023/06/04 07:12:02;;;;;;;;;;;;;;;27.29;32.57;101161.78;5098205;28;1054;-21
2023/06/04 07:14:27;;;;;;;;;;;;;;;27.31;32.57;101153.53;5098461;28;1071;-21
2023/06/04 07:16:52;;;;;;;;;;;;;;;27.43;32.46;101157.50;5098498;28;1229;-21
2023/06/04 07:19:18;;;;;;;;;;;;;;;27.54;32.35;101148.19;5093632;28;1148;-20
2023/06/04 07:21:44;;;;;;;;;;;;;;;27.56;32.46;101148.81;5088824;28;1074;-20
2023/06/04 07:24:09;;;;;;;;;;;;;;;27.28;32.47;101154.69;5098134;28;1066;-21
2023/06/04 07:26:35;;;;;;;;;;;;;;;27.56;32.23;101151.53;5080106;28;1074;-21
2023/06/04 07:29:00;;;;;;;;;;;;;;;27.55;32.35;101149.00;5098054;28;1981;-21
2023/06/04 07:31:26;;;;;;;;;;;;;;;27.49;32.93;101153.28;5097559;28;1185;-21
2023/06/04 07:33:51;;;;;;;;;;;;;;;27.36;32.88;101154.66;5097806;28;1089;-22
2023/06/04 07:36:17;;;;;;;;;;;;;;;27.32;33.05;101150.63;5097862;28;991;-21
2023/06/04 07:38:42;;;;;;;;;;;;;;;27.62;32.47;101144.59;5079680;28;1153;-21
2023/06/04 07:41:08;;;;;;;;;;;;;;;27.48;33.16;101156.97;5097514;28;1149;-20
2023/06/04 07:43:35;;;;;;;;;;;;;;;27.46;32.86;101143.63;5097409;28;1110;-20
2023/06/04 07:46:00;;;;;;;;;;;;;;;27.59;33.21;101158.47;5097568;28;1078;-21
2023/06/04 07:48:30;;;;;;;;;;;;;;;27.70;32.77;101157.25;5096542;28;1930;-20
2023/06/04 07:50:59;;;;;;;;;;;;;;;27.46;32.98;101164.44;5098049;28;1119;-20
2023/06/04 07:53:24;;;;;;;;;;;;;;;27.64;32.49;101164.19;5092642;28;1122;-21
2023/06/04 07:55:50;;;;;;;;;;;;;;;27.62;32.76;101164.34;5088403;28;1150;-22
2023/06/04 07:58:16;;;;;;;;;;;;;;;27.66;32.40;101170.22;5097360;28;1201;-22
2023/06/04 08:00:41;;;;;;;;;;;;;;;27.38;32.75;101168.84;5097289;28;1082;-21
2023/06/04 08:03:06;;;;;;;;;;;;;;;27.75;31.88;101171.06;5096889;28;1094;-20
2023/06/04 08:05:32;;;;;;;;;;;;;;;27.59;32.27;101171.97;5097419;28;1425;-21
2023/06/04 08:07:58;;;;;;;;;;;;;;;27.69;32.59;101183.44;5097186;28;1209;-21
2023/06/04 08:10:23;;;;;;;;;;;;;;;27.63;32.62;101178.69;5097380;28;1894;-21
2023/06/04 08:12:49;;;;;;;;;;;;;;;27.72;32.37;101174.13;5096907;28;1050;-21
2023/06/04 08:15:14;;;;;;;;;;;;;;;27.57;32.63;101190.22;5096986;28;1204;-20
2023/06/04 08:17:40;;;;;;;;;;;;;;;27.46;32.99;101175.25;5096670;28;1097;-22
2023/06/04 08:20:06;;;;;;;;;;;;;;;27.66;31.97;101182.91;5096872;28;1121;-21
2023/06/04 08:22:31;;;;;;;;;;;;;;;27.50;32.56;101192.78;5096555;28;1065;-21
2023/06/04 08:24:57;;;;;;;;;;;;;;;27.63;32.62;101189.50;5096802;28;1109;-21
2023/06/04 08:27:22;;;;;;;;;;;;;;;27.82;31.93;101185.56;5078421;28;1102;-21
2023/06/04 08:29:48;;;;;;;;;;;;;;;27.77;32.59;101193.38;5096875;28;1902;-21
2023/06/04 08:32:14;;;;;;;;;;;;;;;27.78;32.56;101189.63;5096095;28;1011;-20
2023/06/04 08:34:39;;;;;;;;;;;;;;;27.49;33.08;101189.22;5096638;28;1034;-21
2023/06/04 08:37:05;;;;;;;;;;;;;;;27.57;32.52;101185.66;5096836;28;1077;-21
2023/06/04 08:39:31;;;;;;;;;;;;;;;27.66;32.12;101185.63;5096837;28;1011;-21
2023/06/04 08:41:58;;;;;;;;;;;;;;;27.59;32.28;101197.13;5096534;28;1162;-21
2023/06/04 08:44:24;;;;;;;;;;;;;;;27.65;32.51;101194.72;5078312;28;1074;-22
2023/06/04 08:46:51;;;;;;;;;;;;;;;27.73;32.43;101186.63;5078510;28;1278;-22
2023/06/04 08:49:16;;;;;;;;;;;;;;;27.68;31.83;101188.97;5096183;28;2012;-20
2023/06/04 08:51:42;;;;;;;;;;;;;;;27.93;31.17;101180.75;5077710;28;1092;-21
2023/06/04 08:54:08;;;;;;;;;;;;;;;27.64;32.05;101196.63;5096583;28;1128;-21
2023/06/04 08:56:34;;;;;;;;;;;;;;;27.50;31.89;101184.66;5096028;28;1053;-21
2023/06/04 08:59:01;;;;;;;;;;;;;;;27.70;31.75;101193.22;5096652;28;1130;-21
2023/06/04 09:01:26;;;;;;;;;;;;;;;27.55;31.94;101203.06;5095795;28;1130;-22
2023/06/04 09:03:52;;;;;;;;;;;;;;;27.51;31.66;101203.41;5096395;28;1117;-22
2023/06/04 09:06:17;;;;;;;;;;;;;;;27.64;30.83;101196.63;5078302;28;1129;-21
2023/06/04 09:08:43;;;;;;;;;;;;;;;27.85;31.09;101198.72;5077597;28;1975;-20
2023/06/04 09:11:11;;;;;;;;;;;;;;;28.01;30.80;101196.13;5096122;28;1858;-20
2023/06/04 09:13:36;;;;;;;;;;;;;;;27.99;31.86;101190.88;5096525;28;1010;-21
2023/06/04 09:16:02;;;;;;;;;;;;;;;28.31;31.09;101197.06;5095951;28;1047;-21
2023/06/04 09:18:28;;;;;;;;;;;;;;;28.38;31.00;101193.69;5078624;28;1117;-20
2023/06/04 09:21:07;;;;;;;;;;;;;;;28.48;31.39;101194.28;5096545;28;1176;-21
2023/06/04 09:23:48;;;;;;;;;;;;;;;28.76;30.68;101187.47;5084481;28;1193;-20
2023/06/04 09:26:14;;;;;;;;;;;;;;;28.44;30.84;101185.72;5083867;28;987;-20
2023/06/04 09:28:42;;;;;;;;;;;;;;;28.15;31.67;101183.66;5095606;28;1905;-21
2023/06/04 09:31:15;;;;;;;;;;;;;;;28.12;31.69;101187.59;5096109;28;1151;-21
2023/06/04 09:33:49;;;;;;;;;;;;;;;28.13;31.65;101202.78;5096120;28;1042;-21
2023/06/04 09:36:15;;;;;;;;;;;;;;;28.04;31.80;101191.19;5096094;28;1067;-20
2023/06/04 09:38:41;;;;;;;;;;;;;;;28.44;31.11;101185.72;5096315;28;1137;-21
2023/06/04 09:41:13;;;;;;;;;;;;;;;28.59;31.09;101195.72;5077743;28;1232;-21
2023/06/04 09:43:39;;;;;;;;;;;;;;;28.52;30.84;101189.34;5096461;28;1069;-21
2023/06/04 09:46:11;;;;;;;;;;;;;;;28.39;31.39;101195.38;5088595;28;876;-21
2023/06/04 09:48:37;;;;;;;;;;;;;;;28.23;31.43;101186.31;5077595;28;1906;-21
2023/06/04 09:51:21;;;;;;;;;;;;;;;27.79;30.61;101185.94;5096398;28;1140;-20
2023/06/04 09:53:56;;;;;;;;;;;;;;;28.13;30.42;101183.84;5096455;28;1137;-21
2023/06/04 09:56:22;;;;;;;;;;;;;;;28.08;31.24;101191.66;5094782;28;1193;-20
2023/06/04 09:58:48;;;;;;;;;;;;;;;28.08;31.51;101191.66;5095941;28;1038;-20
2023/06/04 10:01:14;;;;;;;;;;;;;;;28.09;31.44;101202.28;5078136;28;1210;-20
2023/06/04 10:03:39;;;;;;;;;;;;;;;23.93;38.44;101191.13;5096196;28;1114;-20
2023/06/04 10:06:05;;;;;;;;;;;;;;;20.47;42.72;101181.53;5096059;28;1134;-21
2023/06/04 10:08:31;;;;;;;;;;;;;;;20.09;48.36;101182.84;5095157;28;1886;-20
2023/06/04 10:11:01;;;;;;;;;;;;;;;20.54;50.05;101179.19;5095665;28;1058;-21
2023/06/04 10:13:27;;;;;;;;;;;;;;;20.80;49.53;101173.50;5068671;28;1107;-20
2023/06/04 10:15:53;;;;;;;;;;;;;;;20.89;48.98;101172.72;5099378;28;1093;-20
2023/06/04 10:18:18;;;;;;;;;;;;;;;20.85;48.74;101181.97;5099554;28;1085;-20
2023/06/04 10:20:44;;;;;;;;;;;;;;;20.85;49.41;101176.63;5099213;28;1019;-20
2023/06/04 10:23:10;;;;;;;;;;;;;;;20.67;49.58;101173.66;5099854;28;1161;-20
2023/06/04 10:25:35;;;;;;;;;;;;;;;20.43;50.39;101164.94;5099472;28;1073;-20
2023/06/04 10:28:01;;;;;;;;;;;;;;;20.31;50.28;101174.81;5099075;28;1065;-20
2023/06/04 10:30:27;;;;;;;;;;;;;;;20.22;50.15;101166.69;5085687;28;1909;-20
2023/06/04 10:32:52;;;;;;;;;;;;;;;20.20;49.90;101164.16;5099224;28;1220;-20
2023/06/04 10:35:28;;;;;;;;;;;;;;;22.71;43.54;101176.56;5099561;28;1114;-20
2023/06/04 10:38:04;;;;;;;;;;;;;;;22.50;42.90;101179.34;5099099;28;1025;-19
2023/06/04 10:40:31;;;;;;;;;;;;;;;19.79;50.69;101171.84;5098770;28;1086;-19
2023/06/04 10:42:56;;;;;;;;;;;;;;;19.11;53.29;101175.34;5098621;28;1063;-19
2023/06/04 10:45:25;;;;;;;;;;;;;;;21.55;47.30;101171.66;5099230;28;1106;-20
2023/06/04 10:47:58;;;;;;;;;;;;;;;23.08;41.28;101166.03;5080721;28;1444;-20
2023/06/04 10:50:24;;;;;;;;;;;;;;;19.95;50.80;101160.78;5080797;28;1914;-19
2023/06/04 10:52:50;;;;;;;;;;;;;;;21.34;48.15;101148.47;5099195;28;1064;-19
2023/06/04 10:55:16;;;;;;;;;;;;;;;24.29;40.34;101169.69;5080611;28;1050;-20
2023/06/04 10:57:50;;;;;;;;;;;;;;;20.16;50.33;101173.38;5098681;28;1053;-19
2023/06/04 11:00:16;;;;;;;;;;;;;;;20.40;50.55;101175.03;5085697;28;1016;-19
2023/06/04 11:02:55;;;;;;;;;;;;;;;23.89;40.86;101162.91;5098596;28;1158;-19
2023/06/04 11:05:20;;;;;;;;;;;;;;;19.88;50.58;101167.59;5098812;28;1049;-20
2023/06/04 11:07:47;;;;;;;;;;;;;;;21.67;47.27;101165.22;5098629;28;1155;-19
2023/06/04 11:10:12;;;;;;;;;;;;;;;22.81;41.77;101178.38;5098644;28;1985;-20
2023/06/04 11:12:44;;;;;;;;;;;;;;;19.82;51.17;101140.41;5097793;28;1233;-21
2023/06/04 11:15:10;;;;;;;;;;;;;;;21.92;46.26;101179.13;5098974;28;1041;-19
2023/06/04 11:17:36;;;;;;;;;;;;;;;23.28;40.95;101188.28;5098235;28;1062;-19
2023/06/04 11:20:01;;;;;;;;;;;;;;;20.03;52.77;101177.06;5098564;28;1034;-20
2023/06/04 11:22:27;;;;;;;;;;;;;;;23.66;42.21;101182.94;5097482;28;1089;-19
2023/06/04 11:24:58;;;;;;;;;;;;;;;20.43;49.79;101190.78;5080559;28;1071;-20
2023/06/04 11:27:24;;;;;;;;;;;;;;;22.23;46.52;101189.78;5098699;28;1143;-20
2023/06/04 11:29:51;;;;;;;;;;;;;;;22.31;44.15;101191.75;5097971;28;1988;-19
2023/06/04 11:32:23;;;;;;;;;;;;;;;20.56;51.68;101193.28;5079903;28;1120;-19
2023/06/04 11:34:48;;;;;;;;;;;;;;;23.95;42.21;101190.00;5097624;28;920;-19
2023/06/04 11:37:14;;;;;;;;;;;;;;;20.01;51.77;101180.78;5084608;28;1082;-20
2023/06/04 11:39:42;;;;;;;;;;;;;;;21.85;47.73;101188.72;5086391;28;1248;-19
2023/06/04 11:42:08;;;;;;;;;;;;;;;22.53;43.18;101186.25;5061788;28;1090;-20
2023/06/04 11:44:34;;;;;;;;;;;;;;;20.38;51.42;101180.50;5089712;28;1142;-19
2023/06/04 11:46:59;;;;;;;;;;;;;;;23.75;42.02;101188.41;5085464;28;1137;-21
2023/06/04 11:49:26;;;;;;;;;;;;;;;20.05;51.57;101167.09;5097868;28;1971;-20
2023/06/04 11:51:52;;;;;;;;;;;;;;;22.62;45.16;101178.25;5097798;28;1138;-19
2023/06/04 11:54:17;;;;;;;;;;;;;;;21.38;47.45;101184.69;5098138;28;1142;-19
2023/06/04 11:56:46;;;;;;;;;;;;;;;20.51;51.16;101176.78;5097543;28;1133;-20
2023/06/04 11:59:15;;;;;;;;;;;;;;;23.94;41.56;101179.41;5097762;28;874;-19
2023/06/04 12:01:41;;;;;;;;;;;;;;;20.09;51.33;101175.69;5079611;28;1213;-19
2023/06/04 12:04:16;;;;;;;;;;;;;;;22.57;45.58;101185.00;5096946;28;1106;-19
2023/06/04 12:06:52;;;;;;;;;;;;;;;21.12;48.02;101177.94;5097151;28;1098;-20
2023/06/04 12:09:21;;;;;;;;;;;;;;;21.44;48.36;101181.47;5097073;28;1902;-19
2023/06/04 12:11:47;;;;;;;;;;;;;;;24.21;40.94;101173.16;5097498;28;1102;-20
2023/06/04 12:14:15;;;;;;;;;;;;;;;20.17;51.47;101180.41;5097141;28;1078;-20
2023/06/04 12:16:41;;;;;;;;;;;;;;;23.83;41.71;101165.19;5097173;28;1046;-20
2023/06/04 12:19:10;;;;;;;;;;;;;;;25.51;37.55;101184.34;5097104;28;1041;-19
2023/06/04 12:21:36;;;;;;;;;;;;;;;26.24;36.27;101183.09;5096868;28;1197;-20
2023/06/04 12:24:08;;;;;;;;;;;;;;;26.44;35.45;101178.25;5097177;28;1081;-19
2023/06/04 12:26:37;;;;;;;;;;;;;;;26.61;35.39;101171.00;5097079;28;1122;-20
2023/06/04 12:29:16;;;;;;;;;;;;;;;26.77;34.96;101172.00;5096924;28;1959;-21
2023/06/04 12:31:42;;;;;;;;;;;;;;;26.89;34.90;101167.09;5097080;28;1120;-20
2023/06/04 12:34:07;;;;;;;;;;;;;;;26.96;34.53;101175.34;5096621;28;1208;-21
2023/06/04 12:36:36;;;;;;;;;;;;;;;26.82;34.96;101172.34;5078613;28;1134;-20
2023/06/04 12:39:02;;;;;;;;;;;;;;;26.80;34.80;101178.91;5096361;28;1069;-20
2023/06/04 12:41:28;;;;;;;;;;;;;;;26.69;35.33;101175.56;5097082;28;1046;-21
2023/06/04 12:43:54;;;;;;;;;;;;;;;26.92;34.49;101161.34;5096802;28;1085;-20
2023/06/04 12:46:19;;;;;;;;;;;;;;;27.13;34.15;101182.44;5097025;28;1086;-20